Tiempo atmosférico en la estación meteorológica de Naut Aran, Arties, Lleida (1185 m.)



Fecha
DESCASC
Temp. máxima en grados centígrados (hora)
DESCASC
Temp. mínima en grados centígrados (hora)
DESCASC
Temp. media en grados centígrados
DESCASC
Racha de viento máxima en m/sg (hora)
DESCASC
Velocidad máxima media en intervalos de 10 minutos(hora)
DESCASC
Precipitaciones diarias en mm
DESCASC
Precipitaciones de 00:00 a 06:00 en mm
DESCASC
Precipitaciones de 06:00 a 12:00 en mm
DESCASC
Precipitaciones de 12:00 a 18:00 en mm
DESCASC
Precipitaciones de 18:00 a 24:00 en mm
DESCASC
14-12-2019 9.3 (15:00) 2.5 (20:30) 5.9 5.83 (22:30) 2.22 (22:30) 0 0 0 0 0
13-12-2019 10 (12:00) 0.4 (01:10) 5.2 22.22 (14:10) 5.83 (12:00) 54.6 21.2 8.1 16.9 8.4
12-12-2019 5.7 (14:20) 0.4 (23:59) 3 5.28 (00:10) 1.94 (05:30) 31.2 1.6 0.4 4.3 24.9
11-12-2019 7.6 (12:00) -0.4 (00:00) 3.6 8.89 (12:10) 3.33 (12:20) 3.8 0 0 2.8 1
10-12-2019 3.7 (13:10) -0.7 (-00:0) 1.5 8.06 (00:30) 2.22 (00:30) 0.4 0.4 0 0 0
09-12-2019 5.3 (13:20) -1 (-00:0) 2.2 10.83 (21:20) 3.61 (19:00) 7.6 0 1.9 3.7 2
08-12-2019 10.1 (14:50) -1.1 (-00:0) 4.5 5 (03:00) 2.5 (02:00) 1.6 0 0 0 1.6
07-12-2019 9.6 (13:20) -0.8 (-00:0) 4.4 4.44 (04:20) 2.5 (02:30) 0 0 0 0 0
06-12-2019 9.2 (13:20) -0.8 (-00:0) 4.2 3.89 (09:10) 1.94 (02:50) 0 0 0 0 0
05-12-2019 9.2 (13:30) 0 (00:00) 4.6 4.44 (13:40) 1.67 (08:30) 0 0 0 0 0
04-12-2019 7.4 (15:20) -0.5 (-00:0) 3.5 3.61 (01:10) 1.94 (12:40) 0 0 0 0 0
03-12-2019 5.7 (13:40) -1.9 (-00:0) 1.9 4.44 (21:40) 2.22 (08:20) 0 0 0 0 0
02-12-2019 7.1 (14:30) 0.3 (00:00) 3.7 3.33 (17:30) 1.67 (01:20) 0 0 0 0 0
01-12-2019 7.7 (13:20) -0.3 (00:00) 3.7 5.56 (04:00) 3.06 (03:30) 3.4 3.4 0 0 0
30-11-2019 14.8 (15:00) -0.5 (-00:0) 7.2 6.39 (04:30) 2.78 (04:40) 10.6 0 0 0 10.6
29-11-2019 11.2 (13:30) 0 (00:00) 5.6 3.89 (04:30) 1.94 (04:40) 0 0 0 0 0
28-11-2019 11.3 (13:10) 1.4 (00:00) 6.4 3.89 (03:20) 1.94 (03:10) 0 0 0 0 0
27-11-2019 10.7 (13:30) 2.5 (00:00) 6.6 6.11 (03:10) 2.78 (02:20) 3.1 3.1 0 0 0
26-11-2019 14.1 (15:20) 0.5 (00:00) 7.3 5.28 (18:50) 2.78 (18:20) 0.2 0 0 0 0.2
25-11-2019 10.1 (14:20) 0.9 (00:00) 5.5 3.89 (00:30) 1.94 (03:40) 0.3 0 0.2 0.1 0
24-11-2019 7.2 (15:00) 0 (00:00) 3.6 7.22 (22:00) 2.22 (15:10) 1.3 0.7 0.6 0 0
23-11-2019 5.9 (12:00) 1 (00:00) 3.5 7.22 (16:40) 2.22 (16:30) 8.2 1.9 0.5 5.8 0
22-11-2019 8.9 (12:30) -0.2 (00:00) 4.3 9.17 (13:00) 4.17 (13:00) 3.5 0 0 0.1 3.4
21-11-2019 6.9 (13:50) -1.5 (-00:0) 2.7 6.39 (05:00) 2.22 (08:40) 0 0 0 0 0
20-11-2019 6 (13:10) -3.1 (-00:0) 1.5 6.94 (22:30) 3.06 (08:20) 0 0 0 0 0
19-11-2019 3.6 (13:30) -7 (-00:0) -1.7 4.72 (04:00) 2.78 (04:30) 0 0 0 0 0
18-11-2019 1.6 (13:30) -2.5 (-00:0) -0.4 4.72 (14:50) 2.22 (23:30) 4.1 1.2 2.9 0 0
17-11-2019 6.3 (13:30) -0.1 (00:00) 3.1 3.06 (21:20) 1.67 (21:20) 3.9 3.8 0.1 0 0
16-11-2019 5.6 (13:20) -6.6 (-00:0) -0.5 5.28 (17:20) 2.5 (06:30) 1.5 0 0 0.1 1.4

Gráficas

Temp. máximas Temp. mínimas Temp. medias Precipitaciones Rachas de viento máximas Velocidades máximas media en intervalos de 10 minutos

Datos horarios

Fecha y hora oficial Temperatura (ºC) Velocidad del viento (km/h) Dirección del viento Racha (km/h) Dirección de racha Precipitación (mm) Presión (hPa) Tendencia (hPa) Humedad (%)
2019-12-15 23:00:00 6.7 6 Nordeste 22 Sudeste 0 -- -- 60
2019-12-15 22:00:00 7.5 10 Este 21 Este 0 -- -- 55
2019-12-15 21:00:00 7.1 8 Este 16 Este 0 -- -- 60
2019-12-15 20:00:00 4.9 4 Este 12 Este 0 -- -- 76
2019-12-15 19:00:00 4.4 0 Calma 13 Nordeste 0 -- -- 77
2019-12-15 18:00:00 4.8 2 Nordeste 10 Nordeste 0 -- -- 77
2019-12-15 17:00:00 5.5 0 Calma 9 Nordeste 0 -- -- 74
2019-12-15 16:00:00 7.5 2 Norte 12 Noroeste 0 -- -- 56
2019-12-15 15:00:00 8.4 2 Sudoeste 10 Sudoeste 0 -- -- 52
2019-12-15 14:00:00 9.4 0 Calma 11 Este 0 -- -- 55
2019-12-15 13:00:00 6.5 5 Nordeste 12 Nordeste 0 -- -- 69
2019-12-15 12:00:00 2.9 2 Este 9 Nordeste 0 -- -- 83
2019-12-15 11:00:00 1.8 3 Este 9 Nordeste 0 -- -- 89
2019-12-15 10:00:00 0.9 0 Calma 12 Nordeste 0 -- -- 90
2019-12-15 09:00:00 0.8 2 Este 9 Este 0 -- -- 92
2019-12-15 08:00:00 0.8 2 Este 17 Nordeste 0 -- -- 90
2019-12-15 07:00:00 0.4 5 Nordeste 11 Nordeste 0 -- -- 93
2019-12-15 06:00:00 1.3 3 Este 13 Este 0 -- -- 90
2019-12-15 05:00:00 1.6 0 Calma 16 Este 0 -- -- 87
2019-12-15 04:00:00 2.2 3 Nordeste 9 Sudeste 0 -- -- 86
2019-12-15 03:00:00 3.2 0 Calma 14 Sudeste 0 -- -- 80
2019-12-15 02:00:00 5.1 6 Sudeste 20 Sudeste 0 -- -- 70
2019-12-15 01:00:00 2.2 0 Calma 12 Sudoeste 0 -- -- 88
2019-12-15 00:00:00 4.8 7 Este 17 Sudeste 0 -- -- 74
2019-12-14 23:00:00 4.6 2 Sur 21 Nordeste 0 -- -- 75
2019-12-14 22:00:00 6.6 6 Este 19 Este 0 -- -- 71
2019-12-14 21:00:00 5.3 5 Este 17 Sudeste 0 -- -- 80
2019-12-14 20:00:00 3.5 5 Este 14 Nordeste 0 -- -- 91
2019-12-14 19:00:00 3.2 0 Calma 16 Nordeste 0 -- -- 93
2019-12-14 18:00:00 3.6 5 Nordeste 10 Norte 0 -- -- 94
2019-12-14 17:00:00 5 0 Calma 6 Nordeste 0 -- -- 93
2019-12-14 16:00:00 7 2 Nordeste 8 Este 0 -- -- 91
2019-12-14 15:00:00 9 2 Este 8 Nordeste 0 -- -- 85
2019-12-14 14:00:00 9 0 Calma 8 Nordeste 0 -- -- 85
2019-12-14 13:00:00 8 2 Este 4 Sudeste 0 -- -- 86
2019-12-14 12:00:00 6.7 0 Calma 9 Nordeste 0 -- -- 89
2019-12-14 11:00:00 5.9 4 Sudeste 10 Sudeste 0 -- -- 91
2019-12-14 10:00:00 5.8 2 Nordeste 10 Norte 0 -- -- 93
2019-12-14 09:00:00 3.6 0 Calma 9 Este 0 -- -- 96
2019-12-14 08:00:00 2.8 0 Calma 7 Sudeste 0 -- -- 95
2019-12-14 07:00:00 3.9 2 Este 10 Este 0 -- -- 94
2019-12-14 06:00:00 4.4 0 Calma 11 Este 0 -- -- 94
2019-12-14 05:00:00 4.9 0 Calma 12 Este 0 -- -- 94
2019-12-14 04:00:00 5.2 4 Nordeste 11 Nordeste 0 -- -- 94
2019-12-14 03:00:00 4.8 4 Nordeste 10 Nordeste 0 -- -- 94
2019-12-14 02:00:00 5.8 6 Nordeste 10 Nordeste 0 -- -- 94
2019-12-14 01:00:00 6.7 0 Calma 10 Este 0 -- -- 94
2019-12-14 00:00:00 6.9 3 Sur 11 Nordeste 0 -- -- 92
2019-12-13 23:00:00 7.3 2 Sur 12 Sudeste 0 -- -- 91
2019-12-13 22:00:00 7.7 3 Este 18 Sudeste 0.1 -- -- 89
2019-12-13 21:00:00 7.6 0 Calma 19 Sudoeste 1.3 -- -- 91
2019-12-13 20:00:00 8 0 Calma 20 Sudoeste 3.2 -- -- 89
2019-12-13 19:00:00 6.6 7 Nordeste 14 Oeste 3.8 -- -- 93
2019-12-13 18:00:00 7.5 4 Sudoeste 33 Sudoeste 4.3 -- -- 88
2019-12-13 17:00:00 7.7 10 Sudoeste 46 Sudoeste 3.6 -- -- 84
2019-12-13 16:00:00 7.9 12 Sudoeste 35 Sudoeste 3.5 -- -- 82
2019-12-13 15:00:00 7.8 9 Sudoeste 80 Sudoeste 3.8 -- -- 83
2019-12-13 14:00:00 9 14 Sudoeste 56 Sudoeste 1.4 -- -- 74
2019-12-13 13:00:00 8.2 11 Sudoeste 66 Sudoeste 0.3 -- -- 76
2019-12-13 12:00:00 9.5 21 Sudoeste 67 Sudoeste 0.6 -- -- 63
2019-12-13 11:00:00 7.6 10 Sudoeste 30 Sudoeste 1.3 -- -- 82
2019-12-13 10:00:00 8.7 18 Sudoeste 56 Sur 1.1 -- -- 68
2019-12-13 09:00:00 6.5 6 Sudoeste 31 Sudoeste 1.3 -- -- 87
2019-12-13 08:00:00 3.8 5 Nordeste 18 Nordeste 0.9 -- -- 96
2019-12-13 07:00:00 1.5 3 Nordeste 16 Este 2.9 -- -- 97
2019-12-13 06:00:00 1 0 Calma 10 Este 2.5 -- -- 97
2019-12-13 05:00:00 0.9 0 Calma 12 Este 3.1 -- -- 97
2019-12-13 04:00:00 0.8 3 Oeste 6 Nordeste 3.9 -- -- 97
2019-12-13 03:00:00 0.8 0 Calma 11 Este 4.3 -- -- 97
2019-12-13 02:00:00 0.6 0 Calma 6 Norte 4 -- -- 97
2019-12-13 01:00:00 0.5 0 Calma 3 Sudoeste 3.4 -- -- 97
2019-12-13 00:00:00 0.5 0 Calma 4 Este 3.9 -- -- 96
2019-12-12 23:00:00 0.6 0 Calma 2 Noroeste 5.4 -- -- 96
2019-12-12 22:00:00 0.5 0 Calma 5 Nordeste 4.1 -- -- 96
2019-12-12 21:00:00 0.7 0 Calma 6 Este 3.7 -- -- 96
2019-12-12 20:00:00 0.9 2 Este 9 Sudeste 4.3 -- -- 95
2019-12-12 19:00:00 1.2 5 Este 13 Nordeste 3.5 -- -- 94
2019-12-12 18:00:00 1.3 6 Este 11 Este 4.3 -- -- 93
2019-12-12 17:00:00 3.9 2 Nordeste 4 Nordeste 0 -- -- 89
2019-12-12 16:00:00 5.1 0 Calma 7 Sudeste 0 -- -- 82
2019-12-12 15:00:00 5.2 5 Nordeste 9 Este 0 -- -- 81
2019-12-12 14:00:00 5.4 3 Nordeste 6 Nordeste 0 -- -- 80
2019-12-12 13:00:00 5 3 Este 9 Nordeste 0 -- -- 82
2019-12-12 12:00:00 3.7 0 Calma 5 Norte 0 -- -- 88
2019-12-12 11:00:00 2.1 0 Calma 6 Sudeste 0 -- -- 94
2019-12-12 10:00:00 1.6 3 Este 6 Este 0 -- -- 95
2019-12-12 09:00:00 0.9 2 Este 5 Sudeste 0 -- -- 96
2019-12-12 08:00:00 0.6 2 Este 6 Este 0.2 -- -- 96
2019-12-12 07:00:00 0.7 0 Calma 7 Oeste 0.2 -- -- 96
2019-12-12 06:00:00 0.9 0 Calma 14 Este 0.3 -- -- 95
2019-12-12 05:00:00 0.8 3 Sudeste 10 Sur 0.2 -- -- 95
2019-12-12 04:00:00 0.8 2 Sur 11 Este 0.4 -- -- 95
2019-12-12 03:00:00 0.7 0 Calma 18 Sudoeste 0.4 -- -- 95
2019-12-12 02:00:00 1.3 3 Sudoeste 18 Sudoeste 0.2 -- -- 90
2019-12-12 01:00:00 1.3 2 Nordeste 19 Sudoeste 0.1 -- -- 88
2019-12-12 00:00:00 1.4 3 Nordeste 24 Oeste 0.1 -- -- 86
2019-12-11 23:00:00 0.8 8 Nordeste 18 Este 0.6 -- -- 93
2019-12-11 22:00:00 0.4 0 Calma 5 Sudeste 0.3 -- -- 96
2019-12-11 21:00:00 0.3 0 Calma 6 Este 0 -- -- 96
2019-12-11 20:00:00 -0.3 0 Calma 6 Este 0 -- -- 94
2019-12-11 19:00:00 0.7 0 Calma 6 Sudeste 0 -- -- 93
2019-12-11 18:00:00 1.7 0 Calma 9 Oeste 0 -- -- 92
2019-12-11 17:00:00 2.4 3 Sudeste 19 Sudoeste 0.1 -- -- 89
2019-12-11 16:00:00 3.1 5 Sudoeste 18 Oeste 0.2 -- -- 92
2019-12-11 15:00:00 3.5 5 Nordeste 17 Sudeste 0.8 -- -- 89
2019-12-11 14:00:00 4.2 0 Calma 20 Sur 1.7 -- -- 87
2019-12-11 13:00:00 6.2 7 Sudoeste 32 Sudoeste 0 -- -- 64
2019-12-11 12:00:00 7.5 9 Sudoeste 22 Sudoeste 0 -- -- 52
2019-12-11 11:00:00 6 0 Calma 16 Nordeste 0 -- -- 60
2019-12-11 10:00:00 4.3 4 Sudeste 15 Este 0 -- -- 64
2019-12-11 09:00:00 2.7 6 Este 12 Este 0 -- -- 71
2019-12-11 08:00:00 2.7 0 Calma 16 Sudeste 0 -- -- 68
2019-12-11 07:00:00 1.5 5 Nordeste 12 Este 0 -- -- 74
2019-12-11 06:00:00 0.6 3 Este 9 Nordeste 0 -- -- 81
2019-12-11 05:00:00 2.1 3 Este 13 Este 0 -- -- 71
2019-12-11 04:00:00 2.9 7 Este 16 Nordeste 0 -- -- 67
2019-12-11 03:00:00 1.1 2 Nordeste 17 Este 0 -- -- 77
2019-12-11 02:00:00 0.6 5 Nordeste 12 Nordeste 0 -- -- 75
2019-12-11 01:00:00 1.2 4 Este 15 Este 0 -- -- 66
2019-12-11 00:00:00 0.2 5 Este 15 Nordeste 0 -- -- 73
2019-12-10 23:00:00 0.3 5 Este 13 Este 0 -- -- 77
2019-12-10 22:00:00 0.4 5 Este 13 Nordeste 0 -- -- 79
2019-12-10 21:00:00 0.4 0 Calma 13 Sudeste 0 -- -- 81
2019-12-10 20:00:00 0.5 5 Este 14 Este 0 -- -- 80
2019-12-10 19:00:00 0.5 3 Este 16 Este 0 -- -- 80
2019-12-10 18:00:00 1.6 7 Este 17 Este 0 -- -- 77
2019-12-10 17:00:00 1.2 4 Este 16 Este 0 -- -- 83
2019-12-10 16:00:00 1.8 6 Este 15 Sudeste 0 -- -- 82
2019-12-10 15:00:00 1.7 5 Este 12 Nordeste 0 -- -- 84
2019-12-10 14:00:00 2.5 7 Nordeste 13 Este 0 -- -- 82
2019-12-10 13:00:00 2.9 2 Este 7 Nordeste 0 -- -- 84
2019-12-10 12:00:00 0.6 4 Nordeste 8 Este 0 -- -- 88
2019-12-10 11:00:00 0 3 Este 14 Nordeste 0 -- -- 88
2019-12-10 10:00:00 -0.5 6 Nordeste 13 Nordeste 0 -- -- 79
2019-12-10 09:00:00 -0.5 6 Nordeste 13 Nordeste 0 -- -- 82
2019-12-10 08:00:00 -0.4 2 Este 10 Este 0 -- -- 92
2019-12-10 07:00:00 0.7 2 Sudeste 8 Este 0 -- -- 92
2019-12-10 06:00:00 1.1 3 Este 11 Sudoeste 0 -- -- 95
2019-12-10 05:00:00 1.1 3 Sudoeste 16 Sudoeste 0 -- -- 94
2019-12-10 04:00:00 1.3 4 Sudoeste 15 Sudoeste 0 -- -- 93
2019-12-10 03:00:00 1.5 4 Sudoeste 19 Sudoeste 0.1 -- -- 91
2019-12-10 02:00:00 1.7 4 Sur 17 Oeste 0 -- -- 87
2019-12-10 01:00:00 2.1 3 Sudoeste 29 Oeste 0.3 -- -- 83
2019-12-10 00:00:00 2.2 9 Sudoeste 30 Sudoeste 0.2 -- -- 85
2019-12-09 23:00:00 2.6 8 Sudoeste 35 Sudoeste 0.2 -- -- 77
2019-12-09 22:00:00 2.5 7 Sudoeste 39 Sudoeste 0.1 -- -- 81
2019-12-09 21:00:00 2.8 10 Sudoeste 35 Sudoeste 0.4 -- -- 72
2019-12-09 20:00:00 1.9 8 Sudoeste 37 Sudoeste 0.4 -- -- 84
2019-12-09 19:00:00 2.3 13 Sudoeste 37 Sudoeste 0.7 -- -- 77
2019-12-09 18:00:00 2.4 7 Sudoeste 32 Sudoeste 1 -- -- 88
2019-12-09 17:00:00 2.7 9 Sudoeste 35 Sudoeste 0.8 -- -- 87
2019-12-09 16:00:00 2.4 9 Sudoeste 29 Sudoeste 0.5 -- -- 87
2019-12-09 15:00:00 2.7 9 Sudoeste 28 Sudoeste 1.2 -- -- 87
2019-12-09 14:00:00 4.9 8 Sudoeste 39 Sudoeste 0 -- -- 58
2019-12-09 13:00:00 4.8 10 Sudoeste 26 Sudoeste 0.2 -- -- 68
2019-12-09 12:00:00 4 6 Sudoeste 26 Sudoeste 0.6 -- -- 83
2019-12-09 11:00:00 2.5 3 Sudoeste 23 Oeste 0.8 -- -- 93
2019-12-09 10:00:00 2.3 4 Sudoeste 13 Sudeste 0.5 -- -- 89
2019-12-09 09:00:00 1.3 0 Calma 11 Este 0 -- -- 87
2019-12-09 08:00:00 0.7 5 Nordeste 9 Nordeste 0 -- -- 88
2019-12-09 07:00:00 1 0 Calma 14 Nordeste 0 -- -- 82
2019-12-09 06:00:00 1.5 2 Sudeste 24 Sudoeste 0 -- -- 77
2019-12-09 05:00:00 -1 3 Nordeste 14 Este 0 -- -- 87
2019-12-09 04:00:00 0.4 5 Este 15 Este 0 -- -- 83
2019-12-09 03:00:00 0 0 Calma 15 Este 0 -- -- 91
2019-12-09 02:00:00 0.9 4 Este 13 Este 0 -- -- 94
2019-12-09 01:00:00 1.8 3 Este 10 Este 0 -- -- 95
2019-12-09 00:00:00 3.4 5 Nordeste 12 Nordeste 0 -- -- 96
2019-12-08 23:00:00 3.9 3 Este 8 Sudeste 0 -- -- 96
2019-12-08 22:00:00 4.4 0 Calma 8 Este 0 -- -- 96
2019-12-08 21:00:00 5 0 Calma 5 Este 0.1 -- -- 95
2019-12-08 20:00:00 5.8 5 Este 10 Este 0.9 -- -- 94
2019-12-08 19:00:00 5.4 4 Nordeste 9 Nordeste 0.6 -- -- 92
2019-12-08 18:00:00 6.3 0 Calma 11 Este 0 -- -- 75
2019-12-08 17:00:00 6.8 3 Este 8 Este 0 -- -- 72
2019-12-08 16:00:00 7.2 2 Nordeste 8 Sudeste 0 -- -- 71
2019-12-08 15:00:00 9.7 2 Sur 14 Sudoeste 0 -- -- 51
2019-12-08 14:00:00 8.6 3 Sur 8 Sudeste 0 -- -- 52
2019-12-08 13:00:00 5.8 0 Calma 4 Este 0 -- -- 68
2019-12-08 12:00:00 2.2 2 Este 6 Nordeste 0 -- -- 79
2019-12-08 11:00:00 0 0 Calma 5 Nordeste 0 -- -- 80
2019-12-08 10:00:00 -0.1 0 Calma 7 Norte 0 -- -- 79
2019-12-08 09:00:00 1.1 4 Este 15 Este 0 -- -- 67
2019-12-08 08:00:00 -0.1 3 Este 8 Este 0 -- -- 80
2019-12-08 07:00:00 0.6 0 Calma 15 Este 0 -- -- 72
2019-12-08 06:00:00 0.2 0 Calma 17 Este 0 -- -- 75
2019-12-08 05:00:00 1.3 8 Este 14 Este 0 -- -- 73
2019-12-08 04:00:00 0 0 Calma 14 Este 0 -- -- 80
2019-12-08 03:00:00 1.8 9 Este 18 Este 0 -- -- 71
2019-12-08 02:00:00 0.9 9 Este 15 Nordeste 0 -- -- 80
2019-12-08 01:00:00 -0.7 2 Nordeste 6 Nordeste 0 -- -- 92
2019-12-08 00:00:00 -0.3 0 Calma 4 Nordeste 0 -- -- 91
2019-12-07 23:00:00 0.9 3 Este 13 Este 0 -- -- 86
2019-12-07 22:00:00 0.4 0 Calma 14 Este 0 -- -- 88
2019-12-07 21:00:00 1.2 5 Este 10 Nordeste 0 -- -- 89
2019-12-07 20:00:00 0.2 2 Nordeste 4 Nordeste 0 -- -- 90
2019-12-07 19:00:00 1.2 0 Calma 6 Nordeste 0 -- -- 87
2019-12-07 18:00:00 2.7 0 Calma 8 Este 0 -- -- 81
2019-12-07 17:00:00 4.3 4 Este 9 Este 0 -- -- 74
2019-12-07 16:00:00 4.7 0 Calma 4 Sudeste 0 -- -- 76
2019-12-07 15:00:00 6.9 0 Calma 4 Este 0 -- -- 66
2019-12-07 14:00:00 7.3 2 Este 8 Sudeste 0 -- -- 64
2019-12-07 13:00:00 9.2 3 Sudeste 8 Sudeste 0 -- -- 53
2019-12-07 12:00:00 3.1 0 Calma 4 Nordeste 0 -- -- 83
2019-12-07 11:00:00 1.7 0 Calma 10 Nordeste 0 -- -- 85
2019-12-07 10:00:00 1 2 Este 9 Nordeste 0 -- -- 85
2019-12-07 09:00:00 0.7 4 Nordeste 14 Este 0 -- -- 83
2019-12-07 08:00:00 0 5 Este 8 Nordeste 0 -- -- 87
2019-12-07 07:00:00 -0.2 2 Nordeste 7 Este 0 -- -- 87
2019-12-07 06:00:00 0.9 2 Este 12 Este 0 -- -- 81
2019-12-07 05:00:00 1.9 4 Este 16 Este 0 -- -- 74
2019-12-07 04:00:00 1 5 Este 13 Este 0 -- -- 82
2019-12-07 03:00:00 0.5 4 Nordeste 15 Este 0 -- -- 80
2019-12-07 02:00:00 0.7 5 Este 13 Este 0 -- -- 83
2019-12-07 01:00:00 0.2 0 Calma 10 Este 0 -- -- 86
2019-12-07 00:00:00 0.6 2 Este 10 Este 0 -- -- 85
2019-12-06 23:00:00 0 3 Nordeste 6 Nordeste 0 -- -- 89
2019-12-06 22:00:00 0.8 3 Este 10 Este 0 -- -- 87
2019-12-06 21:00:00 2 5 Este 13 Este 0 -- -- 81
2019-12-06 20:00:00 1.4 0 Calma 12 Este 0 -- -- 86
2019-12-06 19:00:00 1.9 4 Este 9 Este 0 -- -- 86
2019-12-06 18:00:00 2.1 0 Calma 7 Este 0 -- -- 87
2019-12-06 17:00:00 3.3 0 Calma 5 Este 0 -- -- 85
2019-12-06 16:00:00 4.8 3 Nordeste 5 Nordeste 0 -- -- 79
2019-12-06 15:00:00 7.6 2 Este 6 Noroeste 0 -- -- 62
2019-12-06 14:00:00 8.2 2 Sudeste 9 Sudoeste 0 -- -- 59
2019-12-06 13:00:00 6.6 0 Calma 3 Nordeste 0 -- -- 79
2019-12-06 12:00:00 2.8 3 Nordeste 8 Este 0 -- -- 90
2019-12-06 11:00:00 0.7 3 Nordeste 5 Nordeste 0 -- -- 93
2019-12-06 10:00:00 0.4 0 Calma 14 Nordeste 0 -- -- 90
2019-12-06 09:00:00 1 6 Este 12 Este 0 -- -- 88
2019-12-06 08:00:00 -0.7 0 Calma 6 Norte 0 -- -- 94
2019-12-06 07:00:00 -0.5 3 Nordeste 6 Nordeste 0 -- -- 95
2019-12-06 06:00:00 -0.2 0 Calma 10 Este 0 -- -- 93
2019-12-06 05:00:00 0 2 Este 10 Este 0 -- -- 92
2019-12-06 04:00:00 0.4 5 Nordeste 8 Nordeste 0 -- -- 93
2019-12-06 03:00:00 0.5 0 Calma 13 Este 0 -- -- 89
2019-12-06 02:00:00 0.2 0 Calma 12 Este 0 -- -- 90
2019-12-06 01:00:00 0.5 5 Nordeste 13 Nordeste 0 -- -- 91
2019-12-06 00:00:00 0.1 5 Nordeste 11 Este 0 -- -- 93
2019-12-05 23:00:00 0.3 0 Calma 9 Nordeste 0 -- -- 93
2019-12-05 22:00:00 1.5 4 Este 12 Este 0 -- -- 90
2019-12-05 21:00:00 1.3 2 Nordeste 7 Nordeste 0 -- -- 90
2019-12-05 20:00:00 2.3 3 Este 6 Nordeste 0 -- -- 87
2019-12-05 19:00:00 3.6 2 Este 5 Este 0 -- -- 82
2019-12-05 18:00:00 4.7 2 Nordeste 4 Nordeste 0 -- -- 78
2019-12-05 17:00:00 7 2 Sur 12 Oeste 0 -- -- 66
2019-12-05 16:00:00 7.7 4 Oeste 13 Oeste 0 -- -- 63
2019-12-05 15:00:00 7.7 5 Oeste 14 Oeste 0 -- -- 62
2019-12-05 14:00:00 8 4 Oeste 16 Oeste 0 -- -- 61
2019-12-05 13:00:00 7.7 3 Sudoeste 7 Oeste 0 -- -- 60
2019-12-05 12:00:00 5.7 0 Calma 6 Sudoeste 0 -- -- 66
2019-12-05 11:00:00 4.2 2 Oeste 6 Oeste 0 -- -- 75
2019-12-05 10:00:00 4.3 0 Calma 7 Nordeste 0 -- -- 72
2019-12-05 09:00:00 3.5 5 Este 12 Nordeste 0 -- -- 74
2019-12-05 08:00:00 2.4 0 Calma 6 Nordeste 0 -- -- 83
2019-12-05 07:00:00 2.4 3 Este 9 Este 0 -- -- 81
2019-12-05 06:00:00 1.7 3 Este 5 Nordeste 0 -- -- 86
2019-12-05 05:00:00 1.7 0 Calma 8 Nordeste 0 -- -- 84
2019-12-05 04:00:00 1.1 0 Calma 7 Este 0 -- -- 86
2019-12-05 03:00:00 0.8 0 Calma 7 Nordeste 0 -- -- 86
2019-12-05 02:00:00 1.2 0 Calma 8 Nordeste 0 -- -- 85
2019-12-05 01:00:00 0.9 4 Nordeste 6 Nordeste 0 -- -- 86
2019-12-05 00:00:00 0.9 3 Nordeste 8 Nordeste 0 -- -- 84
2019-12-04 23:00:00 0.8 0 Calma 8 Sudeste 0 -- -- 84
2019-12-04 22:00:00 0.1 3 Nordeste 9 Norte 0 -- -- 85
2019-12-04 21:00:00 1.3 2 Este 9 Este 0 -- -- 83
2019-12-04 20:00:00 1.9 4 Nordeste 9 Nordeste 0 -- -- 82
2019-12-04 19:00:00 1.9 3 Nordeste 7 Nordeste 0 -- -- 83
2019-12-04 18:00:00 3.4 3 Este 5 Nordeste 0 -- -- 77
2019-12-04 17:00:00 5.3 0 Calma 5 Oeste 0 -- -- 67
2019-12-04 16:00:00 6.7 0 Calma 7 Sudoeste 0 -- -- 61
2019-12-04 15:00:00 7.1 0 Calma 7 Sudoeste 0 -- -- 59
2019-12-04 14:00:00 6.7 0 Calma 4 Sudeste 0 -- -- 60
2019-12-04 13:00:00 6.2 0 Calma 12 Nordeste 0 -- -- 65
2019-12-04 12:00:00 4.4 2 Sudoeste 8 Nordeste 0 -- -- 78
2019-12-04 11:00:00 3.8 3 Este 8 Este 0 -- -- 80
2019-12-04 10:00:00 1.6 0 Calma 4 Nordeste 0 -- -- 92
2019-12-04 09:00:00 0.6 0 Calma 10 Este 0 -- -- 94
2019-12-04 08:00:00 0 4 Nordeste 9 Nordeste 0 -- -- 94
2019-12-04 07:00:00 -0.3 2 Nordeste 9 Nordeste 0 -- -- 94
2019-12-04 06:00:00 -0.3 2 Este 6 Sudeste 0 -- -- 93
2019-12-04 05:00:00 0.3 3 Nordeste 13 Nordeste 0 -- -- 91
2019-12-04 04:00:00 0.8 5 Este 11 Este 0 -- -- 92
2019-12-04 03:00:00 1.2 4 Este 9 Este 0 -- -- 91
2019-12-04 02:00:00 0.5 3 Este 13 Este 0 -- -- 90
2019-12-04 01:00:00 0.2 4 Este 11 Este 0 -- -- 90
2019-12-04 00:00:00 -0.1 3 Este 9 Este 0 -- -- 91
2019-12-03 23:00:00 -0.6 2 Nordeste 10 Este 0 -- -- 91
2019-12-03 22:00:00 0.2 5 Este 16 Este 0 -- -- 88
2019-12-03 21:00:00 -1.2 2 Nordeste 6 Nordeste 0 -- -- 93
2019-12-03 20:00:00 -0.9 0 Calma 6 Este 0 -- -- 92
2019-12-03 19:00:00 -0.9 0 Calma 6 Nordeste 0 -- -- 91
2019-12-03 18:00:00 -0.3 0 Calma 6 Nordeste 0 -- -- 88
2019-12-03 17:00:00 0.5 0 Calma 4 Nordeste 0 -- -- 86
2019-12-03 16:00:00 1.4 2 Este 5 Nordeste 0 -- -- 79
2019-12-03 15:00:00 3.9 2 Sudoeste 6 Nordeste 0 -- -- 58
2019-12-03 14:00:00 4.4 0 Calma 10 Sudoeste 0 -- -- 55
2019-12-03 13:00:00 3.7 0 Calma 4 Sudeste 0 -- -- 69
2019-12-03 12:00:00 0 0 Calma 5 Nordeste 0 -- -- 83
2019-12-03 11:00:00 -1.3 2 Nordeste 8 Este 0 -- -- 84
2019-12-03 10:00:00 -1.6 3 Este 12 Nordeste 0 -- -- 76
2019-12-03 09:00:00 -1.7 8 Nordeste 14 Este 0 -- -- 73
2019-12-03 08:00:00 -1.3 7 Este 12 Este 0 -- -- 72
2019-12-03 07:00:00 -0.6 7 Nordeste 11 Este 0 -- -- 72
2019-12-03 06:00:00 -0.1 6 Nordeste 10 Este 0 -- -- 73
2019-12-03 05:00:00 0.8 3 Este 8 Este 0 -- -- 76
2019-12-03 04:00:00 0.9 2 Este 4 Sudeste 0 -- -- 82
2019-12-03 03:00:00 0.9 2 Este 7 Nordeste 0 -- -- 77
2019-12-03 02:00:00 0.8 5 Este 10 Este 0 -- -- 79
2019-12-03 01:00:00 1.4 4 Este 9 Nordeste 0 -- -- 90
2019-12-03 00:00:00 1.8 2 Sudeste 5 Este 0 -- -- 92
2019-12-02 23:00:00 2.4 0 Calma 4 Sudeste 0 -- -- 92
2019-12-02 22:00:00 2.6 0 Calma 6 Sudoeste 0 -- -- 91
2019-12-02 21:00:00 2.9 2 Sudoeste 10 Sudoeste 0 -- -- 89
2019-12-02 20:00:00 3 3 Sudoeste 10 Oeste 0 -- -- 87
2019-12-02 19:00:00 3.4 2 Sudoeste 10 Oeste 0 -- -- 83
2019-12-02 18:00:00 4.2 2 Oeste 12 Noroeste 0 -- -- 76
2019-12-02 17:00:00 5 3 Oeste 12 Noroeste 0 -- -- 68
2019-12-02 16:00:00 6.1 2 Oeste 10 Sudoeste 0 -- -- 61
2019-12-02 15:00:00 6.7 3 Sudoeste 8 Sudoeste 0 -- -- 59
2019-12-02 14:00:00 6.6 4 Sudoeste 9 Sudoeste 0 -- -- 58
2019-12-02 13:00:00 6.1 2 Oeste 4 Noroeste 0 -- -- 65
2019-12-02 12:00:00 4.7 0 Calma 4 Sudoeste 0 -- -- 78
2019-12-02 11:00:00 2.9 0 Calma 7 Este 0 -- -- 88
2019-12-02 10:00:00 0.8 3 Nordeste 7 Nordeste 0 -- -- 94
2019-12-02 09:00:00 0.6 2 Este 7 Sudeste 0 -- -- 93
2019-12-02 08:00:00 1.4 3 Nordeste 4 Nordeste 0 -- -- 94
2019-12-02 07:00:00 1.4 0 Calma 4 Sudeste 0 -- -- 94
2019-12-02 06:00:00 1.3 2 Este 6 Nordeste 0 -- -- 94
2019-12-02 05:00:00 1.1 0 Calma 9 Nordeste 0 -- -- 94
2019-12-02 04:00:00 1.4 3 Nordeste 6 Nordeste 0 -- -- 94
2019-12-02 03:00:00 1.6 0 Calma 8 Este 0 -- -- 90
2019-12-02 02:00:00 1.1 0 Calma 10 Nordeste 0 -- -- 90
2019-12-02 01:00:00 1 5 Nordeste 10 Este 0 -- -- 96
2019-12-02 00:00:00 0.4 0 Calma 4 Nordeste 0 -- -- 95
2019-12-01 23:00:00 1.3 0 Calma 8 Este 0 -- -- 94
2019-12-01 22:00:00 2.2 0 Calma 4 Nordeste 0 -- -- 94
2019-12-01 21:00:00 3 0 Calma 3 Este 0 -- -- 93
2019-12-01 20:00:00 3.2 0 Calma 7 Este 0 -- -- 92
2019-12-01 19:00:00 3.5 0 Calma 5 Este 0 -- -- 91
2019-12-01 18:00:00 3.8 0 Calma 6 Este 0 -- -- 89
2019-12-01 17:00:00 4.8 0 Calma 7 Noroeste 0 -- -- 84
2019-12-01 16:00:00 6 0 Calma 14 Sudoeste 0 -- -- 66
2019-12-01 15:00:00 6.9 5 Sudoeste 15 Sudoeste 0 -- -- 64
2019-12-01 14:00:00 6.4 3 Nordeste 7 Nordeste 0 -- -- 77
2019-12-01 13:00:00 6.9 3 Sudoeste 9 Oeste 0 -- -- 76
2019-12-01 12:00:00 1.9 2 Este 8 Este 0 -- -- 97
2019-12-01 11:00:00 0.5 2 Nordeste 6 Nordeste 0 -- -- 97
2019-12-01 10:00:00 0 2 Nordeste 6 Este 0 -- -- 97
2019-12-01 09:00:00 0.2 2 Este 10 Este 0 -- -- 97
2019-12-01 08:00:00 0.2 3 Este 6 Nordeste 0 -- -- 97
2019-12-01 07:00:00 0.2 0 Calma 6 Sudeste 0 -- -- 96
2019-12-01 06:00:00 0.9 2 Este 9 Nordeste 0 -- -- 96
2019-12-01 05:00:00 1.3 3 Nordeste 12 Oeste 0 -- -- 95
2019-12-01 04:00:00 2.8 5 Este 20 Sudeste 1 -- -- 92
2019-12-01 03:00:00 1.7 3 Nordeste 13 Este 1.2 -- -- 96
2019-12-01 02:00:00 1.5 2 Este 5 Sudeste 0.9 -- -- 96
2019-12-01 01:00:00 2 0 Calma 9 Este 0.3 -- -- 96
2019-12-01 00:00:00 1.6 7 Este 13 Nordeste 1.6 -- -- 94
2019-11-30 23:00:00 2.5 4 Oeste 15 Noroeste 4 -- -- 92
2019-11-30 22:00:00 4.3 3 Oeste 21 Sudoeste 3.3 -- -- 91
2019-11-30 21:00:00 5.9 9 Sudoeste 22 Sudoeste 1.7 -- -- 89
2019-11-30 20:00:00 7.5 3 Oeste 17 Oeste 0 -- -- 81
2019-11-30 19:00:00 9 4 Sudoeste 16 Sudoeste 0 -- -- 65
2019-11-30 18:00:00 9.6 6 Este 18 Este 0 -- -- 60
2019-11-30 17:00:00 10.9 8 Este 18 Sudeste 0 -- -- 57
2019-11-30 16:00:00 12.6 3 Oeste 21 Noroeste 0 -- -- 53
2019-11-30 15:00:00 14.2 5 Oeste 14 Noroeste 0 -- -- 50
2019-11-30 14:00:00 13.8 2 Este 10 Nordeste 0 -- -- 47
2019-11-30 13:00:00 11.3 4 Este 13 Este 0 -- -- 57
2019-11-30 12:00:00 8.9 5 Este 13 Este 0 -- -- 60
2019-11-30 11:00:00 8.2 5 Este 16 Este 0 -- -- 55
2019-11-30 10:00:00 6.9 5 Este 15 Este 0 -- -- 50
2019-11-30 09:00:00 6 6 Este 21 Este 0 -- -- 49
2019-11-30 08:00:00 4.6 6 Este 16 Este 0 -- -- 49
2019-11-30 07:00:00 4.5 4 Este 18 Este 0 -- -- 48
2019-11-30 06:00:00 4.6 8 Este 18 Nordeste 0 -- -- 45
2019-11-30 05:00:00 5 8 Sudeste 23 Este 0 -- -- 42
2019-11-30 04:00:00 1.6 0 Calma 18 Este 0 -- -- 57
2019-11-30 03:00:00 0 0 Calma 9 Este 0 -- -- 75
2019-11-30 02:00:00 0 0 Calma 8 Este 0 -- -- 76
2019-11-30 01:00:00 0 3 Nordeste 8 Este 0 -- -- 79
2019-11-30 00:00:00 0.3 3 Este 13 Este 0 -- -- 77
2019-11-29 23:00:00 0.6 3 Este 12 Este 0 -- -- 78
2019-11-29 22:00:00 1.1 2 Este 11 Nordeste 0 -- -- 84
2019-11-29 21:00:00 1.6 4 Este 12 Nordeste 0 -- -- 85
2019-11-29 20:00:00 1.7 3 Este 10 Este 0 -- -- 90
2019-11-29 19:00:00 2.4 3 Este 9 Este 0 -- -- 89
2019-11-29 18:00:00 2.8 0 Calma 6 Nordeste 0 -- -- 88
2019-11-29 17:00:00 4.2 2 Este 5 Este 0 -- -- 85
2019-11-29 16:00:00 5.8 0 Calma 6 Sur 0 -- -- 78
2019-11-29 15:00:00 9.1 0 Calma 7 Oeste 0 -- -- 62
2019-11-29 14:00:00 9.8 0 Calma 9 Sudeste 0 -- -- 65
2019-11-29 13:00:00 9.9 3 Oeste 12 Sudoeste 0 -- -- 71
2019-11-29 12:00:00 8.4 3 Sudoeste 9 Sudoeste 0 -- -- 79
2019-11-29 11:00:00 6.5 0 Calma 4 Sudoeste 0 -- -- 87
2019-11-29 10:00:00 5.2 0 Calma 5 Este 0 -- -- 94
2019-11-29 09:00:00 3.8 2 Nordeste 4 Norte 0 -- -- 95
2019-11-29 08:00:00 3.4 3 Este 9 Sudeste 0 -- -- 94
2019-11-29 07:00:00 3.1 3 Este 9 Sudeste 0 -- -- 93
2019-11-29 06:00:00 1.7 0 Calma 7 Nordeste 0 -- -- 93
2019-11-29 05:00:00 2.3 2 Nordeste 14 Este 0 -- -- 90
2019-11-29 04:00:00 1.5 3 Nordeste 6 Nordeste 0 -- -- 93
2019-11-29 03:00:00 3.5 3 Este 9 Nordeste 0 -- -- 90
2019-11-29 02:00:00 3 0 Calma 6 Nordeste 0 -- -- 91
2019-11-29 01:00:00 3.7 4 Nordeste 14 Este 0 -- -- 87
2019-11-29 00:00:00 3.7 0 Calma 6 Nordeste 0 -- -- 90
2019-11-28 23:00:00 3.6 0 Calma 7 Nordeste 0 -- -- 89
2019-11-28 22:00:00 4.1 3 Este 6 Este 0 -- -- 87
2019-11-28 21:00:00 6.3 0 Calma 9 Sur 0 -- -- 78
2019-11-28 20:00:00 6.8 0 Calma 10 Este 0 -- -- 73
2019-11-28 19:00:00 7.8 5 Este 14 Este 0 -- -- 64
2019-11-28 18:00:00 7.3 2 Este 12 Este 0 -- -- 69
2019-11-28 17:00:00 7.8 3 Este 10 Nordeste 0 -- -- 69
2019-11-28 16:00:00 8.8 2 Este 4 Este 0 -- -- 69
2019-11-28 15:00:00 10 0 Calma 6 Sudoeste 0 -- -- 56
2019-11-28 14:00:00 10.3 0 Calma 11 Oeste 0 -- -- 55
2019-11-28 13:00:00 11.2 4 Oeste 11 Oeste 0 -- -- 54
2019-11-28 12:00:00 7.1 0 Calma 4 Nordeste 0 -- -- 81
2019-11-28 11:00:00 4.3 0 Calma 5 Nordeste 0 -- -- 89
2019-11-28 10:00:00 2.8 0 Calma 7 Sudeste 0 -- -- 89
2019-11-28 09:00:00 1.8 3 Este 10 Nordeste 0 -- -- 90
2019-11-28 08:00:00 2.1 0 Calma 8 Nordeste 0 -- -- 89
2019-11-28 07:00:00 3 2 Este 10 Este 0 -- -- 87
2019-11-28 06:00:00 2.7 5 Nordeste 12 Nordeste 0 -- -- 89
2019-11-28 05:00:00 2.7 0 Calma 11 Este 0 -- -- 89
2019-11-28 04:00:00 2.6 3 Este 14 Este 0 -- -- 86
2019-11-28 03:00:00 2.6 5 Nordeste 12 Nordeste 0 -- -- 88
2019-11-28 02:00:00 2.5 2 Este 9 Este 0 -- -- 92
2019-11-28 01:00:00 2.9 0 Calma 8 Nordeste 0 -- -- 93
2019-11-28 00:00:00 2.7 3 Nordeste 6 Nordeste 0 -- -- 93
2019-11-27 23:00:00 3.2 3 Nordeste 8 Norte 0 -- -- 93
2019-11-27 22:00:00 3 3 Nordeste 7 Nordeste 0 -- -- 92
2019-11-27 21:00:00 4.8 2 Este 7 Este 0 -- -- 89
2019-11-27 20:00:00 6 3 Este 13 Sudeste 0 -- -- 82
2019-11-27 19:00:00 5.9 3 Este 10 Nordeste 0 -- -- 86
2019-11-27 18:00:00 5.9 4 Este 7 Nordeste 0 -- -- 86
2019-11-27 17:00:00 8.4 0 Calma 10 Oeste 0 -- -- 70
2019-11-27 16:00:00 9.5 3 Oeste 10 Oeste 0 -- -- 62
2019-11-27 15:00:00 10.2 3 Oeste 9 Oeste 0 -- -- 66
2019-11-27 14:00:00 10 0 Calma 6 Sudoeste 0 -- -- 68
2019-11-27 06:00:00 3.6 2 Este 14 Este 0 -- -- 94
2019-11-27 05:00:00 5.7 7 Este 15 Sudeste 0.1 -- -- 91
2019-11-27 04:00:00 7.7 5 Nordeste 22 Oeste 3 -- -- 91
2019-11-27 03:00:00 8.7 0 Calma 22 Este 0 -- -- 72
2019-11-27 02:00:00 7.8 3 Este 14 Nordeste 0 -- -- 78
2019-11-27 01:00:00 8.2 3 Este 18 Este 0 -- -- 82
2019-11-27 00:00:00 9.4 3 Este 12 Sudeste 0.1 -- -- 80
2019-11-26 23:00:00 10 3 Sudeste 19 Nordeste 0 -- -- 74
2019-11-26 22:00:00 10.2 8 Este 19 Nordeste 0 -- -- 77
2019-11-26 21:00:00 9.2 3 Nordeste 13 Este 0.1 -- -- 81
2019-11-26 20:00:00 10.3 8 Nordeste 16 Nordeste 0 -- -- 63
2019-11-26 19:00:00 10.1 5 Este 19 Nordeste 0 -- -- 59
2019-11-26 18:00:00 9.9 10 Nordeste 17 Nordeste 0 -- -- 58
2019-11-26 17:00:00 11.7 7 Sudeste 16 Sudeste 0 -- -- 52
2019-11-26 16:00:00 12.2 2 Sudeste 17 Sudeste 0 -- -- 56
2019-11-26 15:00:00 13 6 Este 18 Este 0 -- -- 47
2019-11-26 14:00:00 13.1 6 Este 12 Sudeste 0 -- -- 47
2019-11-26 13:00:00 10.1 4 Nordeste 10 Nordeste 0 -- -- 61
2019-11-26 12:00:00 6.3 0 Calma 7 Nordeste 0 -- -- 74
2019-11-26 11:00:00 3.9 3 Nordeste 9 Nordeste 0 -- -- 78
2019-11-26 10:00:00 4 3 Este 14 Nordeste 0 -- -- 72
2019-11-26 09:00:00 4.8 5 Este 17 Este 0 -- -- 68
2019-11-26 08:00:00 3.1 7 Este 17 Este 0 -- -- 68
2019-11-26 07:00:00 0.5 0 Calma 12 Nordeste 0 -- -- 85
2019-11-26 06:00:00 1.4 5 Este 12 Este 0 -- -- 83
2019-11-26 05:00:00 1.1 3 Este 6 Nordeste 0 -- -- 90
2019-11-26 04:00:00 1.2 0 Calma 7 Sur 0 -- -- 91
2019-11-26 03:00:00 2.6 3 Este 13 Sudeste 0 -- -- 88
2019-11-26 02:00:00 1.1 2 Nordeste 6 Nordeste 0 -- -- 95
2019-11-26 01:00:00 1.4 4 Nordeste 8 Nordeste 0 -- -- 95
2019-11-26 00:00:00 1.9 3 Este 10 Este 0 -- -- 96
2019-11-25 23:00:00 1.1 4 Nordeste 8 Nordeste 0 -- -- 95
2019-11-25 22:00:00 1.6 3 Nordeste 10 Nordeste 0 -- -- 94
2019-11-25 21:00:00 2.1 4 Nordeste 10 Este 0 -- -- 94
2019-11-25 20:00:00 2.3 3 Nordeste 6 Nordeste 0 -- -- 93
2019-11-25 19:00:00 3.6 0 Calma 8 Nordeste 0 -- -- 90
2019-11-25 18:00:00 5.4 2 Nordeste 12 Este 0 -- -- 87
2019-11-25 17:00:00 7.2 3 Nordeste 5 Nordeste 0 -- -- 84
2019-11-25 16:00:00 8.7 0 Calma 8 Oeste 0 -- -- 81
2019-11-25 15:00:00 9.3 2 Sudoeste 9 Oeste 0 -- -- 76
2019-11-25 14:00:00 9.7 0 Calma 8 Oeste 0 -- -- 73
2019-11-25 13:00:00 9.4 3 Sudoeste 10 Sudoeste 0.1 -- -- 76
2019-11-25 12:00:00 9.5 3 Nordeste 9 Este 0 -- -- 74
2019-11-25 11:00:00 7.4 0 Calma 5 Sudeste 0 -- -- 87
2019-11-25 10:00:00 5.4 0 Calma 14 Sudeste 0 -- -- 89
2019-11-25 09:00:00 3.9 3 Nordeste 9 Nordeste 0.2 -- -- 94
2019-11-25 08:00:00 3.5 2 Nordeste 9 Nordeste 0 -- -- 92
2019-11-25 07:00:00 2.8 2 Este 10 Sudeste 0 -- -- 93
2019-11-25 06:00:00 1.8 0 Calma 6 Nordeste 0 -- -- 91
2019-11-25 05:00:00 2.8 0 Calma 10 Sudeste 0 -- -- 89
2019-11-25 04:00:00 3.3 5 Nordeste 12 Este 0 -- -- 85
2019-11-25 03:00:00 2.7 5 Nordeste 10 Este 0 -- -- 86
2019-11-25 02:00:00 2.4 0 Calma 9 Este 0 -- -- 87
2019-11-25 01:00:00 2.2 3 Este 14 Nordeste 0 -- -- 86
2019-11-25 00:00:00 1.5 5 Este 14 Este 0 -- -- 86
2019-11-24 23:00:00 1.1 5 Este 13 Este 0 -- -- 85
2019-11-24 22:00:00 0.7 2 Este 26 Este 0 -- -- 90
2019-11-24 21:00:00 1.2 3 Este 9 Este 0 -- -- 93
2019-11-24 20:00:00 1.7 0 Calma 6 Nordeste 0 -- -- 93
2019-11-24 19:00:00 1.7 2 Nordeste 10 Este 0 -- -- 92
2019-11-24 18:00:00 2.3 2 Este 6 Este 0 -- -- 89
2019-11-24 17:00:00 4.9 2 Este 8 Este 0 -- -- 81
2019-11-24 16:00:00 5.4 6 Nordeste 16 Nordeste 0 -- -- 77
2019-11-24 15:00:00 6.4 0 Calma 12 Nordeste 0 -- -- 72
2019-11-24 14:00:00 5.8 3 Oeste 7 Oeste 0 -- -- 77
2019-11-24 13:00:00 5 2 Sudoeste 4 Sudoeste 0 -- -- 84
2019-11-24 12:00:00 4 0 Calma 4 Este 0 -- -- 87
2019-11-24 11:00:00 2.7 0 Calma 3 Noroeste 0.5 -- -- 92
2019-11-24 10:00:00 2.2 0 Calma 3 Oeste 0.1 -- -- 95
2019-11-24 09:00:00 1.5 0 Calma 5 Nordeste 0 -- -- 96
2019-11-24 08:00:00 0.9 0 Calma 4 Este 0 -- -- 96
2019-11-24 07:00:00 0.8 0 Calma 6 Nordeste 0 -- -- 95
2019-11-24 06:00:00 1.4 3 Este 12 Sudeste 0 -- -- 96
2019-11-24 05:00:00 1.2 0 Calma 8 Nordeste 0 -- -- 95
2019-11-24 04:00:00 1.3 2 Nordeste 8 Sudeste 0.1 -- -- 95
2019-11-24 03:00:00 1.2 0 Calma 9 Nordeste 0.3 -- -- 94
2019-11-24 02:00:00 1.3 0 Calma 8 Nordeste 0.1 -- -- 93
2019-11-24 01:00:00 1.6 2 Sudoeste 9 Oeste 0.2 -- -- 92
2019-11-24 00:00:00 2.1 0 Calma 6 Este 0 -- -- 86
2019-11-23 23:00:00 2.5 2 Este 22 Sudoeste 0 -- -- 77
2019-11-23 22:00:00 3.9 6 Sudoeste 23 Sudoeste 0 -- -- 63
2019-11-23 21:00:00 4.1 7 Sudoeste 23 Sudoeste 0 -- -- 62
2019-11-23 20:00:00 3.6 5 Sudoeste 23 Sudoeste 0 -- -- 68
2019-11-23 19:00:00 2.9 4 Sudoeste 13 Sudoeste 0 -- -- 85
2019-11-23 18:00:00 2.7 0 Calma 10 Este 0 -- -- 88
2019-11-23 17:00:00 3.9 0 Calma 26 Sudoeste 0 -- -- 74
2019-11-23 16:00:00 4 4 Este 13 Nordeste 0.2 -- -- 87
2019-11-23 15:00:00 3 0 Calma 10 Este 1.3 -- -- 92
2019-11-23 14:00:00 3.3 3 Este 9 Este 3.4 -- -- 89
2019-11-23 13:00:00 4.4 4 Nordeste 12 Nordeste 0.9 -- -- 87
2019-11-23 12:00:00 5.8 3 Nordeste 6 Nordeste 0.5 -- -- 86
2019-11-23 11:00:00 4.9 0 Calma 6 Noroeste 0 -- -- 89
2019-11-23 10:00:00 2.8 0 Calma 5 Oeste 0 -- -- 93
2019-11-23 09:00:00 1.2 0 Calma 13 Nordeste 0 -- -- 92
2019-11-23 08:00:00 2 5 Sudeste 12 Sudeste 0 -- -- 91
2019-11-23 07:00:00 1.9 2 Este 14 Este 0 -- -- 90
2019-11-23 06:00:00 2.3 6 Sudeste 15 Sudeste 0 -- -- 94
2019-11-23 05:00:00 1.6 4 Este 10 Nordeste 0 -- -- 96
2019-11-23 04:00:00 1.6 3 Este 8 Nordeste 0 -- -- 94
2019-11-23 03:00:00 3.9 0 Calma 13 Este 0.4 -- -- 91
2019-11-23 02:00:00 4.5 5 Este 13 Este 1.2 -- -- 94
2019-11-23 01:00:00 4.5 6 Este 18 Sudeste 0.3 -- -- 91
2019-11-23 00:00:00 3.9 3 Este 10 Nordeste 0.8 -- -- 96
2019-11-22 23:00:00 3.8 0 Calma 10 Sudeste 0.9 -- -- 94
2019-11-22 22:00:00 3.9 5 Nordeste 18 Este 0.4 -- -- 91
2019-11-22 21:00:00 5 7 Este 21 Sur 0.5 -- -- 87
2019-11-22 20:00:00 4 9 Nordeste 18 Nordeste 0.5 -- -- 93
2019-11-22 19:00:00 4.7 8 Este 18 Este 0.3 -- -- 87
2019-11-22 18:00:00 5.7 8 Este 23 Este 0.1 -- -- 77
2019-11-22 17:00:00 6 7 Este 20 Nordeste 0 -- -- 72
2019-11-22 16:00:00 6.7 9 Este 28 Nordeste 0 -- -- 68
2019-11-22 15:00:00 7.8 6 Este 24 Este 0 -- -- 62
2019-11-22 14:00:00 7.8 11 Nordeste 27 Nordeste 0 -- -- 57
2019-11-22 13:00:00 7.7 15 Nordeste 33 Nordeste 0 -- -- 53
2019-11-22 12:00:00 8.2 12 Nordeste 30 Nordeste 0 -- -- 49
2019-11-22 11:00:00 6.6 10 Este 26 Nordeste 0 -- -- 54
2019-11-22 10:00:00 6.2 8 Este 21 Nordeste 0 -- -- 55
2019-11-22 09:00:00 2.4 4 Nordeste 11 Nordeste 0 -- -- 79
2019-11-22 08:00:00 0.5 3 Nordeste 7 Nordeste 0 -- -- 86
2019-11-22 07:00:00 0.1 0 Calma 6 Nordeste 0 -- -- 87
2019-11-22 06:00:00 0.1 2 Nordeste 8 Nordeste 0 -- -- 86
2019-11-22 05:00:00 0.6 3 Este 9 Nordeste 0 -- -- 83
2019-11-22 04:00:00 0.5 3 Nordeste 8 Nordeste 0 -- -- 85
2019-11-22 03:00:00 0.1 0 Calma 15 Este 0 -- -- 80
2019-11-22 02:00:00 1.4 6 Sudeste 17 Este 0 -- -- 72
2019-11-22 01:00:00 0.4 4 Este 17 Sudeste 0 -- -- 75
2019-11-22 00:00:00 1.2 6 Sudeste 17 Sudeste 0 -- -- 69
2019-11-21 23:00:00 1.9 6 Sudeste 16 Sudeste 0 -- -- 67
2019-11-21 22:00:00 0.6 5 Sudeste 13 Sudeste 0 -- -- 76
2019-11-21 21:00:00 -0.2 3 Este 16 Este 0 -- -- 83
2019-11-21 20:00:00 -0.3 4 Nordeste 12 Este 0 -- -- 88
2019-11-21 19:00:00 1.2 0 Calma 13 Este 0 -- -- 80
2019-11-21 18:00:00 0.6 2 Nordeste 10 Nordeste 0 -- -- 87
2019-11-21 17:00:00 1.7 3 Nordeste 7 Nordeste 0 -- -- 84
2019-11-21 16:00:00 4.5 0 Calma 6 Nordeste 0 -- -- 70
2019-11-21 15:00:00 5.2 4 Este 15 Sudeste 0 -- -- 65
2019-11-21 14:00:00 6.3 5 Este 13 Nordeste 0 -- -- 56
2019-11-21 13:00:00 5.9 6 Este 12 Este 0 -- -- 58
2019-11-21 12:00:00 4.3 4 Este 11 Este 0 -- -- 62
2019-11-21 11:00:00 2 3 Este 14 Sudeste 0 -- -- 68
2019-11-21 10:00:00 0.6 4 Sudeste 13 Sudeste 0 -- -- 67
2019-11-21 09:00:00 0.3 5 Este 15 Sudeste 0 -- -- 64
2019-11-21 08:00:00 0 6 Este 15 Este 0 -- -- 67
2019-11-21 07:00:00 0.6 6 Este 14 Este 0 -- -- 62
2019-11-21 06:00:00 0.1 6 Sudeste 21 Este 0 -- -- 62
2019-11-21 05:00:00 0.2 6 Este 23 Sudeste 0 -- -- 62
2019-11-21 04:00:00 0 4 Sudeste 14 Sudeste 0 -- -- 62
2019-11-21 03:00:00 0 5 Este 18 Este 0 -- -- 59
2019-11-21 02:00:00 -0.2 6 Este 19 Nordeste 0 -- -- 60
2019-11-21 01:00:00 0 5 Este 19 Este 0 -- -- 61
2019-11-21 00:00:00 0 7 Este 19 Este 0 -- -- 59
2019-11-20 23:00:00 0.5 6 Este 25 Nordeste 0 -- -- 57
2019-11-20 22:00:00 0.4 5 Este 18 Este 0 -- -- 59
2019-11-20 21:00:00 0.8 5 Este 20 Este 0 -- -- 58
2019-11-20 20:00:00 0.9 6 Este 17 Sudeste 0 -- -- 57
2019-11-20 19:00:00 1 5 Este 17 Sudeste 0 -- -- 61
2019-11-20 18:00:00 1.2 5 Este 13 Nordeste 0 -- -- 67
2019-11-20 17:00:00 1.4 0 Calma 10 Nordeste 0 -- -- 78
2019-11-20 16:00:00 3.4 4 Este 16 Nordeste 0 -- -- 65
2019-11-20 15:00:00 5.3 7 Este 14 Nordeste 0 -- -- 53
2019-11-20 14:00:00 4.3 6 Nordeste 15 Este 0 -- -- 60
2019-11-20 13:00:00 5.7 6 Este 13 Este 0 -- -- 53
2019-11-20 12:00:00 4.1 5 Este 19 Este 0 -- -- 52
2019-11-20 11:00:00 2.4 5 Sudeste 17 Sudeste 0 -- -- 51
2019-11-20 10:00:00 1 5 Este 19 Este 0 -- -- 52
2019-11-20 09:00:00 0.5 8 Sudeste 21 Este 0 -- -- 52
2019-11-20 08:00:00 -0.5 8 Este 22 Sudeste 0 -- -- 58
2019-11-20 07:00:00 -1 5 Este 17 Sudeste 0 -- -- 64
2019-11-20 06:00:00 -1.4 5 Este 18 Sudeste 0 -- -- 67
2019-11-20 05:00:00 -1.1 6 Este 20 Este 0 -- -- 59
2019-11-20 04:00:00 -2.5 4 Este 18 Sudeste 0 -- -- 73
2019-11-20 03:00:00 -0.4 8 Este 18 Este 0 -- -- 56
2019-11-20 02:00:00 -0.6 7 Este 20 Sudeste 0 -- -- 61
2019-11-20 01:00:00 -1 6 Este 16 Este 0 -- -- 69
2019-11-20 00:00:00 -2.8 4 Este 14 Este 0 -- -- 81
2019-11-19 23:00:00 -3.6 3 Nordeste 9 Nordeste 0 -- -- 88
2019-11-19 22:00:00 -3.3 4 Este 12 Este 0 -- -- 88
2019-11-19 21:00:00 -2.7 5 Nordeste 14 Nordeste 0 -- -- 86
2019-11-19 20:00:00 -3.1 3 Este 12 Nordeste 0 -- -- 88
2019-11-19 19:00:00 -2.6 3 Este 11 Este 0 -- -- 88
2019-11-19 18:00:00 -2.1 3 Este 10 Este 0 -- -- 88
2019-11-19 17:00:00 -1 4 Este 9 Este 0 -- -- 87
2019-11-19 16:00:00 -0.6 2 Este 4 Nordeste 0 -- -- 86
2019-11-19 15:00:00 1.3 0 Calma 5 Sudoeste 0 -- -- 69
2019-11-19 14:00:00 1.9 0 Calma 5 Este 0 -- -- 72
2019-11-19 13:00:00 2.9 2 Sudeste 5 Este 0 -- -- 65
2019-11-19 12:00:00 -1.4 0 Calma 7 Nordeste 0 -- -- 81
2019-11-19 11:00:00 -4.5 2 Nordeste 8 Este 0 -- -- 87
2019-11-19 10:00:00 -5.3 3 Nordeste 10 Este 0 -- -- 86
2019-11-19 09:00:00 -6 0 Calma 13 Este 0 -- -- 83
2019-11-19 08:00:00 -5.6 6 Este 14 Este 0 -- -- 79
2019-11-19 07:00:00 -6.5 2 Nordeste 16 Este 0 -- -- 82
2019-11-19 06:00:00 -6.5 4 Nordeste 14 Nordeste 0 -- -- 80
2019-11-19 05:00:00 -5.9 6 Nordeste 16 Nordeste 0 -- -- 76
2019-11-19 04:00:00 -5.4 8 Este 17 Este 0 -- -- 79
2019-11-19 03:00:00 -5.7 7 Nordeste 12 Nordeste 0 -- -- 84
2019-11-19 02:00:00 -4.8 7 Este 14 Nordeste 0 -- -- 78
2019-11-19 01:00:00 -3.7 7 Nordeste 13 Nordeste 0 -- -- 76
2019-11-19 00:00:00 -2.5 5 Este 14 Nordeste 0 -- -- 74
2019-11-18 23:00:00 -0.9 3 Este 6 Sudeste 0 -- -- 93
2019-11-18 22:00:00 -0.7 0 Calma 6 Sur 0 -- -- 92
2019-11-18 21:00:00 -0.4 0 Calma 8 Sudoeste 0 -- -- 92
2019-11-18 20:00:00 -0.4 3 Oeste 9 Oeste 0 -- -- 92
2019-11-18 19:00:00 -0.3 2 Sur 7 Sudoeste 0 -- -- 91
2019-11-18 18:00:00 -0.1 3 Sudoeste 14 Sudoeste 0 -- -- 88
2019-11-18 17:00:00 0.1 4 Sudoeste 14 Oeste 0 -- -- 86
2019-11-18 16:00:00 0.6 4 Sudoeste 15 Oeste 0 -- -- 85
2019-11-18 15:00:00 1.4 5 Oeste 17 Oeste 0 -- -- 84
2019-11-18 14:00:00 0.9 5 Sudoeste 14 Sudoeste 0 -- -- 87
2019-11-18 13:00:00 1.1 4 Sudoeste 16 Sudoeste 0 -- -- 87
2019-11-18 12:00:00 1.2 2 Sudoeste 12 Oeste 0 -- -- 89
2019-11-18 11:00:00 0.9 4 Sudoeste 12 Oeste 0 -- -- 92
2019-11-18 10:00:00 0.4 2 Oeste 8 Noroeste 0 -- -- 94
2019-11-18 09:00:00 0.3 0 Calma 5 Sur 0 -- -- 95
2019-11-18 08:00:00 0.2 2 Sudeste 5 Sudeste 0.7 -- -- 96
2019-11-18 07:00:00 0.2 0 Calma 5 Noroeste 2.2 -- -- 96
2019-11-18 06:00:00 0.4 0 Calma 7 Nordeste 0.6 -- -- 95
2019-11-18 05:00:00 0.4 2 Este 9 Nordeste 0.5 -- -- 95
2019-11-18 04:00:00 0.3 5 Este 10 Este 0.1 -- -- 96
2019-11-18 03:00:00 -0.1 0 Calma 4 Sudoeste 0 -- -- 96
2019-11-18 02:00:00 -0.3 0 Calma 5 Este 0 -- -- 96
2019-11-18 01:00:00 -0.4 0 Calma 10 Nordeste 0 -- -- 95
2019-11-18 00:00:00 0.3 4 Nordeste 9 Este 0 -- -- 95
2019-11-17 23:00:00 0.3 0 Calma 4 Nordeste 0 -- -- 95
2019-11-17 22:00:00 1 0 Calma 11 Nordeste 0 -- -- 94
2019-11-17 21:00:00 0.8 0 Calma 5 Nordeste 0 -- -- 95
2019-11-17 20:00:00 0.5 4 Nordeste 10 Nordeste 0 -- -- 93
2019-11-17 19:00:00 1.1 3 Este 8 Este 0 -- -- 93
2019-11-17 18:00:00 2.2 0 Calma 8 Sudeste 0 -- -- 90
2019-11-17 17:00:00 2.6 0 Calma 6 Sudeste 0 -- -- 87
2019-11-17 16:00:00 4.3 4 Nordeste 6 Nordeste 0 -- -- 82
2019-11-17 15:00:00 5.8 2 Este 4 Este 0 -- -- 72
2019-11-17 14:00:00 5.8 0 Calma 7 Sudoeste 0 -- -- 74
2019-11-17 13:00:00 5.4 0 Calma 4 Oeste 0 -- -- 73
2019-11-17 12:00:00 4.6 0 Calma 3 Este 0 -- -- 83
2019-11-17 11:00:00 1.4 0 Calma 5 Nordeste 0 -- -- 93
2019-11-17 10:00:00 1.6 0 Calma 5 Sudoeste 0 -- -- 91
2019-11-17 09:00:00 0.5 0 Calma 4 Sudeste 0 -- -- 96
2019-11-17 08:00:00 0 0 Calma 5 Sudeste 0 -- -- 96
2019-11-17 07:00:00 0 0 Calma 0 Calma 0.1 -- -- 96
2019-11-17 06:00:00 0 0 Calma 5 Este 0.2 -- -- 96
2019-11-17 05:00:00 0 0 Calma 0 Calma 0.3 -- -- 96
2019-11-17 04:00:00 0 0 Calma 0 Calma 0.6 -- -- 96
2019-11-17 03:00:00 -0.1 0 Calma 3 Nordeste 0.4 -- -- 96
2019-11-17 02:00:00 0 0 Calma 2 Este 1.7 -- -- 96
2019-11-17 01:00:00 0 0 Calma 2 Norte 0.6 -- -- 95
2019-11-17 00:00:00 0 0 Calma 5 Este 0 -- -- 95
2019-11-16 23:00:00 -0.3 3 Nordeste 6 Este 0 -- -- 95
2019-11-16 22:00:00 -0.6 2 Este 7 Este 0 -- -- 94
2019-11-16 21:00:00 -0.2 2 Este 8 Este 0.3 -- -- 94
2019-11-16 20:00:00 0 0 Calma 6 Este 0.3 -- -- 93
2019-11-16 19:00:00 0 3 Nordeste 8 Nordeste 0.8 -- -- 93
2019-11-16 18:00:00 0.3 5 Nordeste 19 Este 0.1 -- -- 87
2019-11-16 17:00:00 2.1 3 Este 11 Este 0 -- -- 77
2019-11-16 16:00:00 2.4 0 Calma 3 Nordeste 0 -- -- 84
2019-11-16 15:00:00 3.2 0 Calma 6 Sudeste 0 -- -- 75
2019-11-16 14:00:00 5.5 0 Calma 10 Sudoeste 0 -- -- 48
2019-11-16 13:00:00 5 3 Este 8 Sudeste 0 -- -- 52
2019-11-16 12:00:00 2.5 2 Este 6 Sur 0 -- -- 61
2019-11-16 11:00:00 -1.4 2 Este 13 Nordeste 0 -- -- 77
2019-11-16 10:00:00 -5.1 3 Nordeste 11 Este 0 -- -- 85
2019-11-16 09:00:00 -5.8 3 Nordeste 12 Este 0 -- -- 81
2019-11-16 08:00:00 -5.7 5 Este 16 Nordeste 0 -- -- 80
2019-11-16 07:00:00 -5.8 7 Nordeste 13 Nordeste 0 -- -- 81
2019-11-16 06:00:00 -6.4 4 Este 13 Este 0 -- -- 82
2019-11-16 05:00:00 -5.6 8 Nordeste 13 Nordeste 0 -- -- 82
2019-11-16 04:00:00 -5.8 3 Nordeste 12 Nordeste 0 -- -- 85
2019-11-16 03:00:00 -5.5 5 Este 13 Este 0 -- -- 85
2019-11-16 02:00:00 -5.3 4 Este 15 Este 0 -- -- 83
2019-11-16 01:00:00 -5 5 Este 10 Nordeste 0 -- -- 86
2019-11-16 00:00:00 -3.9 6 Este 12 Nordeste 0 -- -- 82